EDT,Max TemperatureF,Mean TemperatureF,Min TemperatureF,Max Dew PointF,MeanDew PointF,Min DewpointF,Max Humidity, Mean Humidity, Min Humidity, Max Sea Level PressureIn, Mean Sea Level PressureIn, Min Sea Level PressureIn, Max VisibilityMiles, Mean VisibilityMiles, Min VisibilityMiles, Max Wind SpeedMPH, Mean Wind SpeedMPH, Max Gust SpeedMPH,PrecipitationIn, CloudCover, Events, WindDirDegrees
2012-10-1,70,56,46,55,49,45,100,84,50,29.98,29.94,29.89,10,6,0,10,5,,0.01,4,Fog-Rain,255
2012-10-2,63,61,59,63,59,55,100,92,81,30.01,29.96,29.93,10,4,1,8,4,,0.34,8,Rain,87
2012-10-3,73,68,62,68,64,62,100,93,79,30.13,30.04,29.97,10,4,1,7,2,,0.04,6,Rain,327
2012-10-4,77,70,61,68,65,54,100,92,53,30.14,30.12,30.09,10,4,0,9,1,,0.04,5,Fog-Rain,297
2012-10-5,79,66,53,58,55,51,96,70,46,30.13,30.05,29.92,10,9,5,10,2,,0.00,0,,248
2012-10-6,66,56,48,58,50,41,97,74,48,30.08,29.92,29.83,10,9,7,17,4,25,0.00,2,,284
2012-10-7,55,50,45,45,40,36,86,70,56,30.17,30.10,30.04,10,10,10,7,4,,0.03,6,Rain,251
2012-10-8,50,44,39,43,39,36,93,78,62,30.30,30.26,30.18,10,10,2,7,4,,0.03,5,Rain,262
2012-10-9,59,52,46,51,46,43,93,79,58,30.24,30.16,30.07,10,10,7,8,2,,0.00,8,,130
2012-10-10,66,57,48,53,48,37,97,79,47,30.07,29.99,29.85,10,6,1,18,4,24,0.02,6,Rain,270
2012-10-11,60,52,43,38,32,28,80,50,33,30.28,30.19,30.09,10,10,10,10,7,21,0.00,1,,277
2012-10-12,57,47,37,39,34,24,93,64,29,30.45,30.24,30.13,10,10,10,14,3,23,0.00,1,,331
2012-10-13,57,44,30,35,30,27,89,58,34,30.55,30.43,30.27,10,10,10,12,5,,0.00,0,,167
2012-10-14,71,60,48,52,47,37,74,63,49,30.23,30.09,29.90,10,10,10,9,3,,0.00,4,,159
2012-10-15,66,62,55,61,55,42,94,76,54,29.85,29.74,29.68,10,8,1,13,8,20,0.01,6,Rain,238
2012-10-16,60,52,41,42,39,37,93,63,42,29.95,29.88,29.80,10,10,10,15,7,23,0.00,3,,302
2012-10-17,64,50,37,47,42,36,93,74,45,30.03,29.97,29.93,10,10,6,9,2,,0.00,0,,149
2012-10-18,69,58,46,57,51,45,100,84,49,29.96,29.90,29.83,10,6,1,16,5,25,1.16,5,Rain-Thunderstorm,111
2012-10-19,68,60,53,63,58,53,100,94,81,29.85,29.72,29.62,10,4,0,7,1,,0.26,6,Fog-Rain-Thunderstorm,144
2012-10-20,63,55,48,55,46,37,100,77,42,29.92,29.76,29.68,10,7,0,13,5,22,0.01,4,Fog,270
2012-10-21,64,54,44,43,40,39,85,64,40,30.12,30.03,29.93,10,10,10,13,7,22,0.00,1,,276
2012-10-22,69,56,45,45,41,37,86,61,36,30.18,30.13,30.09,10,10,10,9,3,,0.00,0,,261
2012-10-23,66,55,46,59,54,44,100,92,80,30.17,30.09,30.05,10,5,0,5,0,,0.03,4,Fog-Rain,146
2012-10-24,75,63,51,60,55,51,100,89,57,30.15,30.10,30.05,10,4,0,7,0,,0.00,2,Fog,109
2012-10-25,64,62,60,58,58,57,93,88,80,30.24,30.20,30.14,6,4,2,9,6,,0.00,8,,107
2012-10-26,66,62,60,59,57,57,93,84,75,30.21,30.16,30.08,9,5,2,8,5,,0.00,8,,107
2012-10-27,64,60,57,57,55,53,94,81,68,30.07,29.98,29.91,10,8,5,12,4,,0.00,7,,97
2012-10-28,60,56,53,54,50,43,93,79,55,29.91,29.80,29.68,10,9,5,10,3,18,0.12,7,Rain,17
2012-10-29,55,52,51,54,48,46,100,88,80,29.66,29.14,28.49,10,5,2,31,13,50,2.41,8,Rain,332
2012-10-30,52,47,41,52,41,37,94,88,81,29.46,29.19,28.49,10,9,2,25,14,47,0.40,8,Rain,130
2012-10-31,46,42,39,39,37,35,93,83,71,29.62,29.53,29.44,10,10,10,9,3,,0.02,8,Rain,214